Kansas City, Missouri
Traffic Map
Current Weather Conditions
Kansas City, Missouri
Overcast
Overcast
17°
Feels Like: 17°
Wind Chill: 17° Ceiling: 7000
Heat Index: 17° Visibility: 10mi
Dew Point: 10° Wind: 5mph
Humidity: 63% Direction: 120° (ESE)
Pressure: 30.21in Gusts: 0mph
Raw Report DataKMKC 230354Z 12004KT 10SM OVC070 17/10 A3021 RMK AO2 SLP226 T01720100
Traffic Incident Summary
Active as of:
Severity:
Category:
InformationThere was an issue retrieving the traffic information for this location. Please try a different location or try again shortly.
Advertisements
Track Severe Weather on mobile